createdAt,value
2019-05-05T00:00:10.935Z,1015.5622
2019-05-05T00:01:11.364Z,1015.6013
2019-05-05T00:02:10.793Z,1015.624
2019-05-05T00:03:22.051Z,1015.6545
2019-05-05T00:04:21.451Z,1015.6343
2019-05-05T00:05:20.862Z,1015.6601
2019-05-05T00:06:34.119Z,1015.6376
2019-05-05T00:07:20.656Z,1015.6326
2019-05-05T00:07:34.529Z,1015.6409
2019-05-05T00:08:22.001Z,1015.582
2019-05-05T00:09:21.388Z,1015.6454
2019-05-05T00:10:20.782Z,1015.6663
2019-05-05T00:11:32.067Z,1015.6337
2019-05-05T00:12:31.417Z,1015.6795
2019-05-05T00:13:30.861Z,1015.7301
2019-05-05T00:14:44.050Z,1015.7543
2019-05-05T00:15:30.841Z,1015.7478
2019-05-05T00:16:44.298Z,1015.7769
2019-05-05T00:17:30.735Z,1015.7654
2019-05-05T00:17:44.834Z,1015.736
2019-05-05T00:18:31.011Z,1015.7695
2019-05-05T00:19:42.416Z,1015.7257
2019-05-05T00:20:41.850Z,1015.7106
2019-05-05T00:21:41.207Z,1015.7052
2019-05-05T00:22:40.571Z,1015.7212
2019-05-05T00:22:54.467Z,1015.7029
2019-05-05T00:23:40.944Z,1015.7337
2019-05-05T00:24:54.407Z,1015.7315
2019-05-05T00:25:40.838Z,1015.7227
2019-05-05T00:26:52.201Z,1015.81
2019-05-05T00:27:51.664Z,1015.798
2019-05-05T00:28:50.935Z,1015.8272
2019-05-05T00:30:02.240Z,1015.8484
2019-05-05T00:30:50.752Z,1015.9034
2019-05-05T00:32:02.203Z,1015.8161
2019-05-05T00:33:01.516Z,1015.7932
2019-05-05T00:34:00.885Z,1015.8468
2019-05-05T00:35:12.178Z,1015.9021
2019-05-05T00:36:11.563Z,1015.889
2019-05-05T00:37:10.874Z,1015.9447
2019-05-05T00:38:11.242Z,1015.9249
2019-05-05T00:39:10.575Z,1015.9757
2019-05-05T00:39:22.422Z,1015.9675
2019-05-05T00:40:21.861Z,1015.9522
2019-05-05T00:41:21.304Z,1015.9445
2019-05-05T00:42:20.803Z,1015.9732
2019-05-05T00:43:32.129Z,1016.0183
2019-05-05T00:44:31.517Z,1016.0273
2019-05-05T00:45:30.930Z,1016.0034
2019-05-05T00:46:30.562Z,1016.0598
2019-05-05T00:46:44.507Z,1016.0261
2019-05-05T00:47:30.879Z,1015.9631
2019-05-05T00:48:42.048Z,1015.9935
2019-05-05T00:49:46.243Z,1015.9779
2019-05-05T00:50:41.760Z,1015.9511
2019-05-05T00:51:41.133Z,1016.0393
2019-05-05T00:52:40.493Z,1015.9467
2019-05-05T00:52:52.347Z,1015.9519
2019-05-05T00:53:51.705Z,1015.9473
2019-05-05T00:54:51.150Z,1015.9159
2019-05-05T00:55:50.631Z,1015.9456
2019-05-05T00:56:02.570Z,1015.9603
2019-05-05T00:57:01.934Z,1015.9664
2019-05-05T00:58:01.228Z,1015.8749
2019-05-05T00:59:00.625Z,1015.8762
2019-05-05T01:00:11.989Z,1015.8806
2019-05-05T01:01:11.378Z,1015.8756
2019-05-05T01:02:10.797Z,1015.8953
2019-05-05T01:03:24.134Z,1015.8609
2019-05-05T01:04:10.789Z,1015.8424
2019-05-05T01:05:22.080Z,1015.8571
2019-05-05T01:06:21.471Z,1015.9074
2019-05-05T01:07:20.823Z,1015.8895
2019-05-05T01:08:32.197Z,1015.9195
2019-05-05T01:09:31.623Z,1015.9559
2019-05-05T01:10:30.918Z,1015.9745
2019-05-05T01:11:44.454Z,1015.993
2019-05-05T01:12:30.930Z,1015.9443
2019-05-05T01:13:42.295Z,1016.0379
2019-05-05T01:14:41.669Z,1016.0954
2019-05-05T01:15:41.077Z,1016.0873
2019-05-05T01:16:40.566Z,1016.0954
2019-05-05T01:16:54.453Z,1016.0778
2019-05-05T01:17:41.006Z,1016.0987
2019-05-05T01:18:52.280Z,1016.2092
2019-05-05T01:20:01.042Z,1016.2373
2019-05-05T01:20:52.075Z,1016.2694
2019-05-05T01:21:51.476Z,1016.2482
2019-05-05T01:22:50.850Z,1016.2734
2019-05-05T01:24:02.305Z,1016.2139
2019-05-05T01:25:01.691Z,1016.3153
2019-05-05T01:26:01.101Z,1016.3
2019-05-05T01:27:00.552Z,1016.3688
2019-05-05T01:27:14.541Z,1016.3186
2019-05-05T01:28:00.969Z,1016.3421
2019-05-05T01:29:00.480Z,1016.3253
2019-05-05T01:29:12.326Z,1016.3234
2019-05-05T01:30:11.584Z,1016.3129
2019-05-05T01:31:10.935Z,1016.2695
2019-05-05T01:32:22.313Z,1016.2935
2019-05-05T01:33:10.814Z,1016.3175
2019-05-05T01:34:23.809Z,1016.2518
2019-05-05T01:35:10.585Z,1016.3535
2019-05-05T01:35:22.469Z,1016.3392
2019-05-05T01:36:23.698Z,1016.3595
2019-05-05T01:37:22.312Z,1016.353
2019-05-05T01:39:21.900Z,1016.4385
2019-05-05T01:40:21.365Z,1016.3809
2019-05-05T01:41:20.699Z,1016.3967
2019-05-05T01:41:34.555Z,1016.3872
2019-05-05T01:42:21.073Z,1016.4379
2019-05-05T01:43:20.497Z,1016.4179
2019-05-05T01:43:34.455Z,1016.4395
2019-05-05T01:44:20.907Z,1016.4556
2019-05-05T01:45:32.271Z,1016.3768
2019-05-05T01:46:31.688Z,1016.4075
2019-05-05T01:47:31.092Z,1016.3598
2019-05-05T01:48:30.544Z,1016.3161
2019-05-05T01:49:30.962Z,1016.2888
2019-05-05T01:50:31.749Z,1016.3189
2019-05-05T01:51:31.075Z,1016.2837
2019-05-05T01:52:31.540Z,1016.2792
2019-05-05T01:53:30.904Z,1016.256
2019-05-05T01:54:44.370Z,1016.1925
2019-05-05T01:55:30.923Z,1016.2412
2019-05-05T01:56:44.320Z,1016.172
2019-05-05T01:57:30.658Z,1016.2648
2019-05-05T01:57:42.581Z,1016.2321
2019-05-05T01:58:43.696Z,1016.2479
2019-05-05T01:59:30.542Z,1016.2986
2019-05-05T01:59:44.516Z,1016.2591
2019-05-05T02:00:31.105Z,1016.2506
2019-05-05T02:01:30.536Z,1016.2601
2019-05-05T02:01:44.308Z,1016.2814
2019-05-05T02:02:31.794Z,1016.234
2019-05-05T02:03:31.098Z,1016.2756
2019-05-05T02:04:44.108Z,1016.2922
2019-05-05T02:05:30.903Z,1016.2902
2019-05-05T02:06:44.071Z,1016.2668
2019-05-05T02:07:30.757Z,1016.2684
2019-05-05T02:08:42.068Z,1016.2893
2019-05-05T02:09:41.428Z,1016.3103
2019-05-05T02:10:40.861Z,1016.312
2019-05-05T02:11:52.077Z,1016.2904
2019-05-05T02:12:51.455Z,1016.315
2019-05-05T02:13:50.705Z,1016.362
2019-05-05T02:15:04.068Z,1016.3421
2019-05-05T02:15:50.537Z,1016.3579
2019-05-05T02:16:04.497Z,1016.3499
2019-05-05T02:16:51.004Z,1016.3709
2019-05-05T02:18:04.429Z,1016.3792
2019-05-05T02:18:50.923Z,1016.3497
2019-05-05T02:19:50.476Z,1016.3742
2019-05-05T02:20:02.317Z,1016.4115
2019-05-05T02:21:01.650Z,1016.3579
2019-05-05T02:22:01.128Z,1016.3706
2019-05-05T02:23:00.621Z,1016.3007
2019-05-05T02:23:12.466Z,1016.3269
2019-05-05T02:24:00.915Z,1016.3009
2019-05-05T02:25:12.297Z,1016.346
2019-05-05T02:26:11.604Z,1016.3188
2019-05-05T02:27:11.026Z,1016.2807
2019-05-05T02:28:10.499Z,1016.2673
2019-05-05T02:28:23.992Z,1016.2835
2019-05-05T02:29:10.793Z,1016.3054
2019-05-05T02:30:22.179Z,1016.2687
2019-05-05T02:31:21.568Z,1016.2645
2019-05-05T02:32:20.951Z,1016.2702
2019-05-05T02:33:35.068Z,1016.327
2019-05-05T02:34:20.624Z,1016.3065
2019-05-05T02:34:32.569Z,1016.354
2019-05-05T02:35:31.956Z,1016.3356
2019-05-05T02:36:31.298Z,1016.3623
2019-05-05T02:37:30.666Z,1016.3078
2019-05-05T02:37:45.359Z,1016.3506
2019-05-05T02:38:30.940Z,1016.2979
2019-05-05T02:39:49.860Z,1016.3211
2019-05-05T02:40:30.883Z,1016.3314
2019-05-05T02:41:42.061Z,1016.3518
2019-05-05T02:42:41.469Z,1016.3965
2019-05-05T02:43:40.918Z,1016.3709
2019-05-05T02:44:54.361Z,1016.3306
2019-05-05T02:45:40.668Z,1016.3331
2019-05-05T02:45:55.148Z,1016.3707
2019-05-05T02:46:40.965Z,1016.384
2019-05-05T02:47:54.866Z,1016.4093
2019-05-05T02:48:40.864Z,1016.3887
2019-05-05T02:49:54.582Z,1016.4229
2019-05-05T02:50:52.263Z,1016.4232
2019-05-05T02:51:40.773Z,1016.4401
2019-05-05T02:52:53.507Z,1016.4338
2019-05-05T02:53:40.621Z,1016.4423
2019-05-05T02:53:53.689Z,1016.4508
2019-05-05T02:54:44.049Z,1016.4706
2019-05-05T02:55:32.699Z,1016.442
2019-05-05T02:56:31.049Z,1016.4768
2019-05-05T02:57:43.907Z,1016.481
2019-05-05T02:58:30.726Z,1016.4959
2019-05-05T02:58:44.360Z,1016.53
2019-05-05T02:59:31.101Z,1016.5173
2019-05-05T03:00:43.722Z,1016.4822
2019-05-05T03:01:30.933Z,1016.5084
2019-05-05T03:02:43.428Z,1016.5024
2019-05-05T03:03:30.748Z,1016.5026
2019-05-05T03:04:44.160Z,1016.5342
2019-05-05T03:05:30.463Z,1016.5326
2019-05-05T03:05:43.444Z,1016.51
2019-05-05T03:06:30.890Z,1016.5379
2019-05-05T03:07:31.241Z,1016.5232
2019-05-05T03:08:30.637Z,1016.5175
2019-05-05T03:08:43.942Z,1016.5306
2019-05-05T03:09:31.262Z,1016.5167
2019-05-05T03:10:30.621Z,1016.5368
2019-05-05T03:10:44.155Z,1016.5711
2019-05-05T03:11:30.985Z,1016.5373
2019-05-05T03:12:30.524Z,1016.5343
2019-05-05T03:12:43.891Z,1016.5395
2019-05-05T03:13:31.015Z,1016.5234
2019-05-05T03:14:30.613Z,1016.5234
2019-05-05T03:14:44.421Z,1016.551
2019-05-05T03:15:30.882Z,1016.5611
2019-05-05T03:16:43.506Z,1016.5289
2019-05-05T03:17:30.651Z,1016.5253
2019-05-05T03:18:43.797Z,1016.5546
2019-05-05T03:19:44.222Z,1016.5708
2019-05-05T03:20:30.887Z,1016.5672
2019-05-05T03:21:43.961Z,1016.59
2019-05-05T03:22:30.638Z,1016.6355
2019-05-05T03:22:43.443Z,1016.626
2019-05-05T03:23:30.958Z,1016.6374
2019-05-05T03:24:42.245Z,1016.6472
2019-05-05T03:25:41.663Z,1016.6501
2019-05-05T03:26:41.175Z,1016.676
2019-05-05T03:27:40.494Z,1016.6386
2019-05-05T03:27:53.687Z,1016.6892
2019-05-05T03:28:40.880Z,1016.6755
2019-05-05T03:29:53.504Z,1016.6818
2019-05-05T03:30:40.714Z,1016.6979
2019-05-05T03:31:52.077Z,1016.7039
2019-05-05T03:32:51.392Z,1016.7039
2019-05-05T03:33:50.752Z,1016.6759
2019-05-05T03:35:04.074Z,1016.6873
2019-05-05T03:35:50.672Z,1016.7474
2019-05-05T03:37:03.976Z,1016.7606
2019-05-05T03:38:03.855Z,1016.7178
2019-05-05T03:38:50.744Z,1016.7507
2019-05-05T03:40:04.060Z,1016.7622
2019-05-05T03:40:50.487Z,1016.7537
2019-05-05T03:41:03.564Z,1016.7505
2019-05-05T03:41:50.952Z,1016.7113
2019-05-05T03:43:04.010Z,1016.7273
2019-05-05T03:43:50.696Z,1016.7242
2019-05-05T03:45:03.943Z,1016.7352
2019-05-05T03:45:51.495Z,1016.7271
2019-05-05T03:46:50.927Z,1016.7625
2019-05-05T03:48:02.180Z,1016.7658
2019-05-05T03:49:01.540Z,1016.7298
2019-05-05T03:50:04.095Z,1016.7492
2019-05-05T03:50:50.499Z,1016.7312
2019-05-05T03:51:15.294Z,1016.7312
2019-05-05T03:51:51.024Z,1016.7065
2019-05-05T03:52:50.505Z,1016.7503
2019-05-05T03:53:02.453Z,1016.7767
2019-05-05T03:54:01.827Z,1016.7631
2019-05-05T03:55:01.156Z,1016.7634
2019-05-05T03:56:00.614Z,1016.7253
2019-05-05T03:56:14.013Z,1016.7204
2019-05-05T03:57:01.150Z,1016.7759
2019-05-05T03:58:00.531Z,1016.7399
2019-05-05T03:58:14.423Z,1016.7759
2019-05-05T03:59:00.881Z,1016.7988
2019-05-05T04:00:14.115Z,1016.8085
2019-05-05T04:01:00.630Z,1016.8591
2019-05-05T04:01:14.369Z,1016.8007
2019-05-05T04:02:00.931Z,1016.8364
2019-05-05T04:03:00.467Z,1016.8004
2019-05-05T04:03:12.400Z,1016.8151
2019-05-05T04:04:13.460Z,1016.8379
2019-05-05T04:05:14.384Z,1016.8328
2019-05-05T04:06:01.663Z,1016.8524
2019-05-05T04:07:01.032Z,1016.8357
2019-05-05T04:08:00.572Z,1016.8437
2019-05-05T04:08:14.272Z,1016.8292
2019-05-05T04:09:00.907Z,1016.8323
2019-05-05T04:10:14.001Z,1016.839
2019-05-05T04:11:00.719Z,1016.8878
2019-05-05T04:12:01.071Z,1016.8748
2019-05-05T04:13:00.473Z,1016.8353
2019-05-05T04:13:13.884Z,1016.8173
2019-05-05T04:14:01.078Z,1016.801
2019-05-05T04:15:00.533Z,1016.8432
2019-05-05T04:15:14.156Z,1016.8382
2019-05-05T04:16:01.030Z,1016.8451
2019-05-05T04:17:14.094Z,1016.8623
2019-05-05T04:18:00.842Z,1016.8495
2019-05-05T04:19:13.827Z,1016.8231
2019-05-05T04:20:00.729Z,1016.8443
2019-05-05T04:21:12.016Z,1016.8359
2019-05-05T04:22:13.325Z,1016.8587
2019-05-05T04:23:13.904Z,1016.8163
2019-05-05T04:24:00.693Z,1016.8685
2019-05-05T04:25:13.877Z,1016.9023
2019-05-05T04:26:00.812Z,1016.9089
2019-05-05T04:27:14.381Z,1016.9151
2019-05-05T04:28:00.635Z,1016.9538
2019-05-05T04:28:13.581Z,1016.9813
2019-05-05T04:29:03.031Z,1016.9356
2019-05-05T04:30:03.627Z,1016.9353
2019-05-05T04:31:01.810Z,1016.9204
2019-05-05T04:32:01.167Z,1016.9383
2019-05-05T04:33:00.572Z,1016.9478
2019-05-05T04:33:14.182Z,1016.9135
2019-05-05T04:34:00.992Z,1016.9396
2019-05-05T04:35:14.024Z,1016.931
2019-05-05T04:36:00.694Z,1016.9536
2019-05-05T04:36:14.426Z,1016.9143
2019-05-05T04:37:01.133Z,1016.935
2019-05-05T04:38:00.502Z,1016.9007
2019-05-05T04:38:13.855Z,1016.8746
2019-05-05T04:39:00.893Z,1016.9187
2019-05-05T04:40:14.507Z,1016.8858
2019-05-05T04:41:00.741Z,1016.9084
2019-05-05T04:41:13.988Z,1016.9168
2019-05-05T04:42:01.011Z,1016.9522
2019-05-05T04:43:14.021Z,1016.9653
2019-05-05T04:44:11.684Z,1016.9813
2019-05-05T04:45:11.032Z,1017.0092
2019-05-05T04:46:24.329Z,1016.9909
2019-05-05T04:47:10.802Z,1016.9351
2019-05-05T04:48:23.991Z,1016.9659
2019-05-05T04:49:10.646Z,1016.9428
2019-05-05T04:49:23.466Z,1017.0062
2019-05-05T04:50:11.043Z,1017.0206
2019-05-05T04:51:10.515Z,1017.0413
2019-05-05T04:51:24.296Z,1017.0073
2019-05-05T04:52:10.989Z,1017.0234
2019-05-05T04:53:24.082Z,1017.0242
2019-05-05T04:54:10.810Z,1017.0271
2019-05-05T04:55:24.255Z,1017.0396
2019-05-05T04:56:10.888Z,1017.0568
2019-05-05T04:57:23.993Z,1017.1048
2019-05-05T04:58:11.122Z,1017.1712
2019-05-05T04:59:10.652Z,1017.1741
2019-05-05T05:00:23.943Z,1017.1665
2019-05-05T05:01:10.578Z,1017.2181
2019-05-05T05:01:24.048Z,1017.2425
2019-05-05T05:02:10.947Z,1017.2227
2019-05-05T05:03:21.217Z,1017.2648
2019-05-05T05:04:20.698Z,1017.2401
2019-05-05T05:04:33.609Z,1017.2335
2019-05-05T05:05:21.089Z,1017.2611
2019-05-05T05:06:34.154Z,1017.2572
2019-05-05T05:07:21.081Z,1017.2608
2019-05-05T05:08:21.273Z,1017.2229
2019-05-05T05:09:20.677Z,1017.2736
2019-05-05T05:09:34.138Z,1017.2929
2019-05-05T05:10:21.377Z,1017.2929
2019-05-05T05:11:20.918Z,1017.2815
2019-05-05T05:12:34.138Z,1017.2845
2019-05-05T05:13:20.749Z,1017.2959
2019-05-05T05:14:33.678Z,1017.3215
2019-05-05T05:15:20.479Z,1017.3051
2019-05-05T05:15:34.012Z,1017.315
2019-05-05T05:16:20.900Z,1017.3258
2019-05-05T05:17:21.354Z,1017.3334
2019-05-05T05:18:20.734Z,1017.3172
2019-05-05T05:19:33.486Z,1017.344
2019-05-05T05:20:20.720Z,1017.3342
2019-05-05T05:20:33.944Z,1017.3457
2019-05-05T05:21:21.008Z,1017.35
2019-05-05T05:22:20.560Z,1017.3527
2019-05-05T05:22:33.418Z,1017.3641
2019-05-05T05:23:20.961Z,1017.3492
2019-05-05T05:24:34.060Z,1017.3453
2019-05-05T05:25:20.597Z,1017.3074
2019-05-05T05:25:34.382Z,1017.2826
2019-05-05T05:26:21.015Z,1017.3756
2019-05-05T05:27:33.551Z,1017.3112
2019-05-05T05:28:21.083Z,1017.3659
2019-05-05T05:29:20.594Z,1017.3752
2019-05-05T05:29:34.316Z,1017.3359
2019-05-05T05:30:21.055Z,1017.3757
2019-05-05T05:31:33.701Z,1017.3911
2019-05-05T05:32:20.648Z,1017.4279
2019-05-05T05:32:33.956Z,1017.4194
2019-05-05T05:33:21.031Z,1017.3764
2019-05-05T05:34:20.599Z,1017.4274
2019-05-05T05:34:33.852Z,1017.4209
2019-05-05T05:35:20.899Z,1017.4721
2019-05-05T05:36:33.797Z,1017.5219
2019-05-05T05:37:20.770Z,1017.5193
2019-05-05T05:38:34.335Z,1017.5165
2019-05-05T05:39:20.919Z,1017.5242
2019-05-05T05:40:33.995Z,1017.5161
2019-05-05T05:41:20.798Z,1017.5133
2019-05-05T05:42:33.547Z,1017.5431
2019-05-05T05:43:20.522Z,1017.5454
2019-05-05T05:43:33.474Z,1017.5779
2019-05-05T05:44:21.123Z,1017.5789
2019-05-05T05:45:33.796Z,1017.6179
2019-05-05T05:46:20.785Z,1017.6626
2019-05-05T05:47:33.819Z,1017.6414
2019-05-05T05:48:20.648Z,1017.704
2019-05-05T05:48:34.167Z,1017.6774
2019-05-05T05:49:21.015Z,1017.6451
2019-05-05T05:50:33.894Z,1017.7001
2019-05-05T05:51:20.977Z,1017.7139
2019-05-05T05:52:34.188Z,1017.7406
2019-05-05T05:53:20.834Z,1017.7203
2019-05-05T05:54:34.013Z,1017.7661
2019-05-05T05:55:20.752Z,1017.7896
2019-05-05T05:56:34.080Z,1017.8226
2019-05-05T05:57:20.842Z,1017.8308
2019-05-05T05:58:33.732Z,1017.8231
2019-05-05T05:59:20.825Z,1017.8425
2019-05-05T06:00:21.275Z,1017.8973
2019-05-05T06:01:20.739Z,1017.8546
2019-05-05T06:02:33.455Z,1017.9067
2019-05-05T06:03:33.884Z,1017.9277
2019-05-05T06:04:20.804Z,1017.9542
2019-05-05T06:05:34.128Z,1017.9578
2019-05-05T06:06:20.503Z,1017.9226
2019-05-05T06:06:34.499Z,1017.9486
2019-05-05T06:07:20.850Z,1017.9737
2019-05-05T06:08:32.078Z,1017.964
2019-05-05T06:09:20.517Z,1017.974
2019-05-05T06:09:34.364Z,1018.0098
2019-05-05T06:10:24.370Z,1018.0398
2019-05-05T06:11:21.469Z,1018.024
2019-05-05T06:12:20.782Z,1017.9486
2019-05-05T06:13:33.600Z,1018.0351
2019-05-05T06:14:20.650Z,1018.0548
2019-05-05T06:14:34.011Z,1018.0951
2019-05-05T06:15:21.177Z,1018.1127
2019-05-05T06:16:20.728Z,1018.1108
2019-05-05T06:17:34.140Z,1018.1458
2019-05-05T06:18:20.578Z,1018.2156
2019-05-05T06:18:34.339Z,1018.1647
2019-05-05T06:19:20.992Z,1018.1743
2019-05-05T06:20:34.163Z,1018.2309
2019-05-05T06:21:21.003Z,1018.1745
2019-05-05T06:22:34.297Z,1018.2016
2019-05-05T06:23:20.738Z,1018.1437
2019-05-05T06:24:32.034Z,1018.2341
2019-05-05T06:25:33.986Z,1018.1769
2019-05-05T06:26:33.707Z,1018.2131
2019-05-05T06:27:34.127Z,1018.2494
2019-05-05T06:28:20.729Z,1018.2568
2019-05-05T06:28:34.160Z,1018.2679
2019-05-05T06:29:21.035Z,1018.2829
2019-05-05T06:30:33.616Z,1018.2937
2019-05-05T06:31:20.862Z,1018.3565
2019-05-05T06:33:20.819Z,1018.2959
2019-05-05T06:34:33.806Z,1018.3375
2019-05-05T06:35:20.704Z,1018.3214
2019-05-05T06:35:33.774Z,1018.2968
2019-05-05T06:36:21.128Z,1018.3417
2019-05-05T06:37:20.472Z,1018.3068
2019-05-05T06:37:34.199Z,1018.3432
2019-05-05T06:38:20.894Z,1018.2771
2019-05-05T06:39:33.446Z,1018.3753
2019-05-05T06:40:20.738Z,1018.3306
2019-05-05T06:41:34.070Z,1018.3651
2019-05-05T06:42:20.817Z,1018.3864
2019-05-05T06:43:32.163Z,1018.3598
2019-05-05T06:44:33.655Z,1018.3167
2019-05-05T06:45:34.074Z,1018.4099
2019-05-05T06:46:20.536Z,1018.3229
2019-05-05T06:46:34.210Z,1018.382
2019-05-05T06:47:21.081Z,1018.3981
2019-05-05T06:48:20.466Z,1018.3779
2019-05-05T06:48:34.200Z,1018.4577
2019-05-05T06:49:20.823Z,1018.3673
2019-05-05T06:50:21.052Z,1018.3718
2019-05-05T06:51:20.582Z,1018.3809
2019-05-05T06:51:33.526Z,1018.3605
2019-05-05T06:52:21.099Z,1018.3975
2019-05-05T06:53:34.133Z,1018.4328
2019-05-05T06:54:21.025Z,1018.4246
2019-05-05T06:55:34.040Z,1018.4184
2019-05-05T06:56:20.728Z,1018.4057
2019-05-05T06:57:32.063Z,1018.4216
2019-05-05T06:58:31.489Z,1018.4395
2019-05-05T06:59:30.976Z,1018.464
2019-05-05T07:00:44.068Z,1018.5154
2019-05-05T07:01:33.764Z,1018.5393
2019-05-05T07:02:23.661Z,1018.5449
2019-05-05T07:03:13.685Z,1018.5898
2019-05-05T07:04:13.937Z,1018.6121
2019-05-05T07:05:00.754Z,1018.5843
2019-05-05T07:06:01.078Z,1018.5913
2019-05-05T07:07:00.584Z,1018.6024
2019-05-05T07:07:14.518Z,1018.6105
2019-05-05T07:08:01.205Z,1018.6173
2019-05-05T07:09:01.104Z,1018.6284
2019-05-05T07:10:00.867Z,1018.6428
2019-05-05T07:11:00.972Z,1018.6819
2019-05-05T07:12:01.188Z,1018.647
2019-05-05T07:13:01.619Z,1018.6777
2019-05-05T07:14:03.709Z,1018.7025
2019-05-05T07:14:53.566Z,1018.6638
2019-05-05T07:15:54.004Z,1018.6276
2019-05-05T07:16:40.515Z,1018.5758
2019-05-05T07:16:54.253Z,1018.6543
2019-05-05T07:17:40.863Z,1018.6243
2019-05-05T07:18:53.897Z,1018.6481
2019-05-05T07:19:41.440Z,1018.6275
2019-05-05T07:20:40.822Z,1018.657
2019-05-05T07:21:40.532Z,1018.6867
2019-05-05T07:21:53.767Z,1018.7031
2019-05-05T07:22:55.562Z,1018.6846
2019-05-05T07:23:44.253Z,1018.7125
2019-05-05T07:24:30.804Z,1018.7253
2019-05-05T07:25:43.614Z,1018.715
2019-05-05T07:26:31.162Z,1018.6873
2019-05-05T07:27:31.028Z,1018.7067
2019-05-05T07:28:30.686Z,1018.7009
2019-05-05T07:28:44.496Z,1018.7351
2019-05-05T07:29:31.558Z,1018.6802
2019-05-05T07:30:33.539Z,1018.7597
2019-05-05T07:31:20.509Z,1018.7259
2019-05-05T07:31:34.230Z,1018.7308
2019-05-05T07:32:23.961Z,1018.7456
2019-05-05T07:33:11.205Z,1018.7645
2019-05-05T07:34:11.073Z,1018.7454
2019-05-05T07:35:11.022Z,1018.784
2019-05-05T07:36:21.968Z,1018.7565
2019-05-05T07:37:23.802Z,1018.7427
2019-05-05T07:38:11.011Z,1018.7946
2019-05-05T07:39:11.056Z,1018.801
2019-05-05T07:40:11.117Z,1018.8059
2019-05-05T07:41:11.123Z,1018.8332
2019-05-05T07:42:11.059Z,1018.765
2019-05-05T07:43:11.227Z,1018.8059
2019-05-05T07:44:23.410Z,1018.8491
2019-05-05T07:45:20.111Z,1018.8901
2019-05-05T07:46:00.787Z,1018.8453
2019-05-05T07:47:00.524Z,1018.8139
2019-05-05T07:47:14.381Z,1018.8287
2019-05-05T07:48:01.440Z,1018.8393
2019-05-05T07:49:01.240Z,1018.7804
2019-05-05T07:50:00.871Z,1018.854
2019-05-05T07:51:05.045Z,1018.8125
2019-05-05T07:51:50.650Z,1018.807
2019-05-05T07:52:04.025Z,1018.8674
2019-05-05T07:52:51.263Z,1018.9422
2019-05-05T07:53:50.921Z,1018.8915
2019-05-05T07:54:50.885Z,1018.8465
2019-05-05T07:55:50.850Z,1018.8779
2019-05-05T07:56:50.591Z,1018.894
2019-05-05T07:57:04.176Z,1018.8535
2019-05-05T07:57:51.296Z,1018.9004
2019-05-05T07:58:50.890Z,1018.9428
2019-05-05T07:59:50.853Z,1018.8822
2019-05-05T08:00:50.666Z,1018.8499
2019-05-05T08:01:04.417Z,1018.8414
2019-05-05T08:01:51.015Z,1018.8646
2019-05-05T08:03:03.693Z,1018.8315
2019-05-05T08:03:51.055Z,1018.8119
2019-05-05T08:04:50.613Z,1018.8418
2019-05-05T08:05:04.440Z,1018.7853
2019-05-05T08:05:50.989Z,1018.8359
2019-05-05T08:06:50.762Z,1018.911
2019-05-05T08:08:01.982Z,1018.9122
2019-05-05T08:09:01.324Z,1018.8093
2019-05-05T08:10:01.615Z,1018.8967
2019-05-05T08:11:00.952Z,1018.8471
2019-05-05T08:12:13.684Z,1018.8685
2019-05-05T08:13:00.768Z,1018.8851
2019-05-05T08:14:11.974Z,1018.8629
2019-05-05T08:15:11.351Z,1018.9057
2019-05-05T08:16:10.936Z,1018.9259
2019-05-05T08:17:23.525Z,1018.9039
2019-05-05T08:18:11.012Z,1018.8923
2019-05-05T08:19:23.715Z,1018.9435
2019-05-05T08:20:10.754Z,1018.8956
2019-05-05T08:21:24.025Z,1018.9404
2019-05-05T08:22:10.927Z,1018.9486
2019-05-05T08:23:29.673Z,1018.9564
2019-05-05T08:24:10.941Z,1018.9962
2019-05-05T08:25:34.258Z,1018.9879
2019-05-05T08:26:10.804Z,1019.0209
2019-05-05T08:27:22.087Z,1019.0172
2019-05-05T08:28:23.219Z,1019.0571
2019-05-05T08:29:23.862Z,1019.062
2019-05-05T08:30:24.218Z,1019.0557
2019-05-05T08:31:11.064Z,1019.0974
2019-05-05T08:32:10.581Z,1019.1057
2019-05-05T08:32:23.758Z,1019.0875
2019-05-05T08:33:11.254Z,1019.0661
2019-05-05T08:34:10.703Z,1019.0915
2019-05-05T08:35:23.765Z,1019.1177
2019-05-05T08:36:10.814Z,1019.2227
2019-05-05T08:37:23.652Z,1019.1585
2019-05-05T08:38:11.037Z,1019.1574
2019-05-05T08:39:11.456Z,1019.181
2019-05-05T08:40:10.826Z,1019.1997
2019-05-05T08:41:24.238Z,1019.2296
2019-05-05T08:42:10.576Z,1019.2413
2019-05-05T08:42:24.079Z,1019.1859
2019-05-05T08:43:11.119Z,1019.2011
2019-05-05T08:44:10.536Z,1019.1715
2019-05-05T08:44:23.623Z,1019.1397
2019-05-05T08:45:10.910Z,1019.239
2019-05-05T08:46:22.042Z,1019.2652
2019-05-05T08:47:21.622Z,1019.2509
2019-05-05T08:48:22.075Z,1019.3312
2019-05-05T08:49:21.495Z,1019.2961
2019-05-05T08:50:23.928Z,1019.3571
2019-05-05T08:51:21.271Z,1019.3211
2019-05-05T08:52:20.653Z,1019.3668
2019-05-05T08:52:34.249Z,1019.3387
2019-05-05T08:53:21.181Z,1019.4171
2019-05-05T08:54:20.599Z,1019.4137
2019-05-05T08:54:34.328Z,1019.375
2019-05-05T08:55:21.105Z,1019.3699
2019-05-05T08:56:20.657Z,1019.3739
2019-05-05T08:57:33.922Z,1019.4782
2019-05-05T08:58:20.636Z,1019.4906
2019-05-05T08:58:34.368Z,1019.402
2019-05-05T08:59:21.029Z,1019.5337
2019-05-05T09:00:33.769Z,1019.575
2019-05-05T09:01:20.886Z,1019.5378
2019-05-05T09:02:33.856Z,1019.5473
2019-05-05T09:03:20.590Z,1019.5764
2019-05-05T09:03:33.635Z,1019.5718
2019-05-05T09:04:21.092Z,1019.5315
2019-05-05T09:05:20.525Z,1019.6145
2019-05-05T09:05:34.285Z,1019.5672
2019-05-05T09:06:20.817Z,1019.5801
2019-05-05T09:07:33.603Z,1019.5313
2019-05-05T09:08:20.533Z,1019.5602
2019-05-05T09:08:34.461Z,1019.5784
2019-05-05T09:09:20.920Z,1019.5504
2019-05-05T09:10:34.171Z,1019.5687
2019-05-05T09:11:20.711Z,1019.5769
2019-05-05T09:11:34.261Z,1019.5752
2019-05-05T09:12:21.098Z,1019.5296
2019-05-05T09:13:20.516Z,1019.5236
2019-05-05T09:13:33.960Z,1019.5227
2019-05-05T09:14:21.053Z,1019.5393
2019-05-05T09:15:33.646Z,1019.5357
2019-05-05T09:16:20.997Z,1019.4966
2019-05-05T09:17:33.614Z,1019.5724
2019-05-05T09:18:20.723Z,1019.5457
2019-05-05T09:19:34.384Z,1019.5762
2019-05-05T09:20:20.819Z,1019.5408
2019-05-05T09:21:34.279Z,1019.5573
2019-05-05T09:22:20.578Z,1019.5237
2019-05-05T09:22:34.591Z,1019.559
2019-05-05T09:23:21.007Z,1019.5346
2019-05-05T09:24:34.059Z,1019.5125
2019-05-05T09:25:20.843Z,1019.4913
2019-05-05T09:26:34.239Z,1019.4816
2019-05-05T09:27:20.682Z,1019.5137
2019-05-05T09:27:33.832Z,1019.4922
2019-05-05T09:28:21.033Z,1019.515
2019-05-05T09:29:32.318Z,1019.5128
2019-05-05T09:30:33.815Z,1019.5059
2019-05-05T09:31:34.222Z,1019.5565
2019-05-05T09:32:20.595Z,1019.5329
2019-05-05T09:32:34.374Z,1019.5086
2019-05-05T09:33:21.160Z,1019.4929
2019-05-05T09:34:20.580Z,1019.4859
2019-05-05T09:34:34.071Z,1019.4854
2019-05-05T09:35:21.391Z,1019.5296
2019-05-05T09:36:21.718Z,1019.5092
2019-05-05T09:37:21.376Z,1019.5358
2019-05-05T09:38:34.473Z,1019.5133
2019-05-05T09:39:20.759Z,1019.4913
2019-05-05T09:40:33.469Z,1019.541
2019-05-05T09:41:20.592Z,1019.4616
2019-05-05T09:41:33.996Z,1019.5052
2019-05-05T09:42:20.979Z,1019.4555
2019-05-05T09:43:34.271Z,1019.4841
2019-05-05T09:44:20.789Z,1019.4293
2019-05-05T09:45:33.644Z,1019.4539
2019-05-05T09:46:20.755Z,1019.4206
2019-05-05T09:47:32.025Z,1019.3997
2019-05-05T09:48:33.344Z,1019.4048
2019-05-05T09:49:33.658Z,1019.4213
2019-05-05T09:50:21.226Z,1019.3731
2019-05-05T09:51:20.640Z,1019.3396
2019-05-05T09:52:33.748Z,1019.3693
2019-05-05T09:53:20.539Z,1019.334
2019-05-05T09:53:34.243Z,1019.3258
2019-05-05T09:54:20.993Z,1019.3251